sensor_id;sensor_type;location;lat;lon;timestamp;P1;durP1;ratioP1;P2;durP2;ratioP2
43676;SDS011;29275;48.800;18.102;2024-03-06T00:02:54;28.83;;;14.90;;
43676;SDS011;29275;48.800;18.102;2024-03-06T00:05:57;21.58;;;13.65;;
43676;SDS011;29275;48.800;18.102;2024-03-06T00:09:00;22.70;;;14.10;;
43676;SDS011;29275;48.800;18.102;2024-03-06T00:12:05;26.23;;;14.77;;
43676;SDS011;29275;48.800;18.102;2024-03-06T00:15:08;26.70;;;14.98;;
43676;SDS011;29275;48.800;18.102;2024-03-06T00:18:11;23.20;;;14.23;;
43676;SDS011;29275;48.800;18.102;2024-03-06T00:21:14;27.00;;;14.63;;
43676;SDS011;29275;48.800;18.102;2024-03-06T00:24:17;27.10;;;14.02;;
43676;SDS011;29275;48.800;18.102;2024-03-06T00:27:20;25.20;;;14.73;;
43676;SDS011;29275;48.800;18.102;2024-03-06T00:30:25;24.75;;;14.13;;
43676;SDS011;29275;48.800;18.102;2024-03-06T00:33:29;24.80;;;14.73;;
43676;SDS011;29275;48.800;18.102;2024-03-06T00:36:32;26.90;;;13.82;;
43676;SDS011;29275;48.800;18.102;2024-03-06T00:39:37;23.75;;;14.32;;
43676;SDS011;29275;48.800;18.102;2024-03-06T00:42:40;27.60;;;14.38;;
43676;SDS011;29275;48.800;18.102;2024-03-06T00:45:44;23.10;;;14.07;;
43676;SDS011;29275;48.800;18.102;2024-03-06T00:48:47;25.27;;;14.10;;
43676;SDS011;29275;48.800;18.102;2024-03-06T00:51:50;25.55;;;14.38;;
43676;SDS011;29275;48.800;18.102;2024-03-06T00:54:53;26.17;;;14.60;;
43676;SDS011;29275;48.800;18.102;2024-03-06T00:57:56;21.52;;;12.98;;
43676;SDS011;29275;48.800;18.102;2024-03-06T01:00:59;24.67;;;13.00;;
43676;SDS011;29275;48.800;18.102;2024-03-06T01:04:02;27.42;;;14.75;;
43676;SDS011;29275;48.800;18.102;2024-03-06T01:07:05;26.80;;;14.40;;
43676;SDS011;29275;48.800;18.102;2024-03-06T01:10:07;22.25;;;14.10;;
43676;SDS011;29275;48.800;18.102;2024-03-06T01:13:11;24.20;;;13.93;;
43676;SDS011;29275;48.800;18.102;2024-03-06T01:16:16;23.92;;;14.38;;
43676;SDS011;29275;48.800;18.102;2024-03-06T01:19:22;23.20;;;12.70;;
43676;SDS011;29275;48.800;18.102;2024-03-06T01:22:25;26.25;;;13.85;;
43676;SDS011;29275;48.800;18.102;2024-03-06T01:25:28;23.52;;;13.88;;
43676;SDS011;29275;48.800;18.102;2024-03-06T01:28:31;23.90;;;13.35;;
43676;SDS011;29275;48.800;18.102;2024-03-06T01:31:34;23.42;;;12.98;;
43676;SDS011;29275;48.800;18.102;2024-03-06T01:34:37;22.88;;;13.20;;
43676;SDS011;29275;48.800;18.102;2024-03-06T01:37:43;25.70;;;14.73;;
43676;SDS011;29275;48.800;18.102;2024-03-06T01:40:46;20.70;;;13.15;;
43676;SDS011;29275;48.800;18.102;2024-03-06T01:43:49;24.48;;;13.57;;
43676;SDS011;29275;48.800;18.102;2024-03-06T01:46:52;22.83;;;12.82;;
43676;SDS011;29275;48.800;18.102;2024-03-06T01:49:56;26.98;;;14.65;;
43676;SDS011;29275;48.800;18.102;2024-03-06T01:52:59;22.85;;;13.05;;
43676;SDS011;29275;48.800;18.102;2024-03-06T01:56:03;21.83;;;13.65;;
43676;SDS011;29275;48.800;18.102;2024-03-06T01:59:09;25.40;;;13.60;;
43676;SDS011;29275;48.800;18.102;2024-03-06T02:02:22;20.77;;;12.30;;
43676;SDS011;29275;48.800;18.102;2024-03-06T02:05:26;23.25;;;13.88;;
43676;SDS011;29275;48.800;18.102;2024-03-06T02:08:30;20.65;;;12.65;;
43676;SDS011;29275;48.800;18.102;2024-03-06T02:11:33;23.20;;;13.43;;
43676;SDS011;29275;48.800;18.102;2024-03-06T02:14:36;20.85;;;12.85;;
43676;SDS011;29275;48.800;18.102;2024-03-06T02:17:40;22.85;;;12.88;;
43676;SDS011;29275;48.800;18.102;2024-03-06T02:20:43;21.80;;;12.27;;
43676;SDS011;29275;48.800;18.102;2024-03-06T02:23:47;23.67;;;12.80;;
43676;SDS011;29275;48.800;18.102;2024-03-06T02:26:51;23.30;;;13.15;;
43676;SDS011;29275;48.800;18.102;2024-03-06T02:29:53;26.15;;;12.77;;
43676;SDS011;29275;48.800;18.102;2024-03-06T02:32:56;21.30;;;12.52;;
43676;SDS011;29275;48.800;18.102;2024-03-06T02:35:59;21.85;;;11.55;;
43676;SDS011;29275;48.800;18.102;2024-03-06T02:39:03;21.20;;;12.48;;
43676;SDS011;29275;48.800;18.102;2024-03-06T02:42:11;22.98;;;12.40;;
43676;SDS011;29275;48.800;18.102;2024-03-06T02:45:14;25.15;;;12.98;;
43676;SDS011;29275;48.800;18.102;2024-03-06T02:48:17;22.40;;;13.45;;
43676;SDS011;29275;48.800;18.102;2024-03-06T02:51:22;25.10;;;12.93;;
43676;SDS011;29275;48.800;18.102;2024-03-06T02:54:25;25.33;;;14.20;;
43676;SDS011;29275;48.800;18.102;2024-03-06T02:57:28;23.95;;;13.10;;
43676;SDS011;29275;48.800;18.102;2024-03-06T03:00:33;25.05;;;13.55;;
43676;SDS011;29275;48.800;18.102;2024-03-06T03:03:38;22.10;;;13.73;;
43676;SDS011;29275;48.800;18.102;2024-03-06T03:06:43;27.85;;;13.43;;
43676;SDS011;29275;48.800;18.102;2024-03-06T03:09:45;25.83;;;14.07;;
43676;SDS011;29275;48.800;18.102;2024-03-06T03:12:49;22.30;;;13.27;;
43676;SDS011;29275;48.800;18.102;2024-03-06T03:15:52;20.75;;;12.15;;
43676;SDS011;29275;48.800;18.102;2024-03-06T03:18:57;22.30;;;13.27;;
43676;SDS011;29275;48.800;18.102;2024-03-06T03:22:00;23.50;;;13.32;;
43676;SDS011;29275;48.800;18.102;2024-03-06T03:25:07;24.42;;;13.45;;
43676;SDS011;29275;48.800;18.102;2024-03-06T03:28:11;27.73;;;14.23;;
43676;SDS011;29275;48.800;18.102;2024-03-06T03:31:13;24.58;;;14.52;;
43676;SDS011;29275;48.800;18.102;2024-03-06T03:34:16;26.70;;;14.65;;
43676;SDS011;29275;48.800;18.102;2024-03-06T03:37:19;28.02;;;14.77;;
43676;SDS011;29275;48.800;18.102;2024-03-06T03:40:27;26.70;;;15.10;;
43676;SDS011;29275;48.800;18.102;2024-03-06T03:43:30;30.48;;;16.95;;
43676;SDS011;29275;48.800;18.102;2024-03-06T03:46:35;27.90;;;15.82;;
43676;SDS011;29275;48.800;18.102;2024-03-06T03:49:38;27.08;;;16.30;;
43676;SDS011;29275;48.800;18.102;2024-03-06T03:52:41;27.45;;;15.88;;
43676;SDS011;29275;48.800;18.102;2024-03-06T03:55:46;27.13;;;14.85;;
43676;SDS011;29275;48.800;18.102;2024-03-06T03:58:49;28.70;;;15.90;;
43676;SDS011;29275;48.800;18.102;2024-03-06T04:01:52;29.08;;;15.45;;
43676;SDS011;29275;48.800;18.102;2024-03-06T04:04:55;28.30;;;15.02;;
43676;SDS011;29275;48.800;18.102;2024-03-06T04:08:00;32.22;;;15.50;;
43676;SDS011;29275;48.800;18.102;2024-03-06T04:11:04;23.25;;;13.73;;
43676;SDS011;29275;48.800;18.102;2024-03-06T04:14:07;27.75;;;14.18;;
43676;SDS011;29275;48.800;18.102;2024-03-06T04:17:10;25.92;;;14.77;;
43676;SDS011;29275;48.800;18.102;2024-03-06T04:20:13;23.33;;;13.30;;
43676;SDS011;29275;48.800;18.102;2024-03-06T04:23:17;24.92;;;15.27;;
43676;SDS011;29275;48.800;18.102;2024-03-06T04:26:20;29.85;;;15.43;;
43676;SDS011;29275;48.800;18.102;2024-03-06T04:29:23;28.00;;;14.55;;
43676;SDS011;29275;48.800;18.102;2024-03-06T04:32:27;28.92;;;15.98;;
43676;SDS011;29275;48.800;18.102;2024-03-06T04:35:32;28.75;;;15.73;;
43676;SDS011;29275;48.800;18.102;2024-03-06T04:38:37;28.38;;;15.02;;
43676;SDS011;29275;48.800;18.102;2024-03-06T04:41:40;27.20;;;14.95;;
43676;SDS011;29275;48.800;18.102;2024-03-06T04:44:45;28.00;;;14.68;;
43676;SDS011;29275;48.800;18.102;2024-03-06T04:47:48;24.40;;;14.38;;
43676;SDS011;29275;48.800;18.102;2024-03-06T04:50:50;28.63;;;15.98;;
43676;SDS011;29275;48.800;18.102;2024-03-06T04:53:54;25.75;;;15.85;;
43676;SDS011;29275;48.800;18.102;2024-03-06T04:56:57;29.15;;;15.40;;
43676;SDS011;29275;48.800;18.102;2024-03-06T05:00:00;28.08;;;16.10;;
43676;SDS011;29275;48.800;18.102;2024-03-06T05:03:05;30.33;;;15.63;;
43676;SDS011;29275;48.800;18.102;2024-03-06T05:06:22;28.25;;;15.90;;
43676;SDS011;29275;48.800;18.102;2024-03-06T05:09:39;27.13;;;16.05;;
43676;SDS011;29275;48.800;18.102;2024-03-06T05:12:58;29.30;;;16.10;;
43676;SDS011;29275;48.800;18.102;2024-03-06T05:16:15;25.88;;;15.20;;
43676;SDS011;29275;48.800;18.102;2024-03-06T05:19:31;31.00;;;16.73;;
43676;SDS011;29275;48.800;18.102;2024-03-06T05:22:48;30.77;;;15.95;;
43676;SDS011;29275;48.800;18.102;2024-03-06T05:29:23;29.60;;;15.63;;
43676;SDS011;29275;48.800;18.102;2024-03-06T05:32:40;28.75;;;14.57;;
43676;SDS011;29275;48.800;18.102;2024-03-06T05:35:57;27.30;;;15.10;;
43676;SDS011;29275;48.800;18.102;2024-03-06T05:39:14;32.00;;;15.93;;
43676;SDS011;29275;48.800;18.102;2024-03-06T05:42:31;29.98;;;16.52;;
43676;SDS011;29275;48.800;18.102;2024-03-06T05:45:47;28.93;;;15.60;;
43676;SDS011;29275;48.800;18.102;2024-03-06T05:49:05;28.48;;;16.02;;
43676;SDS011;29275;48.800;18.102;2024-03-06T05:52:23;29.63;;;15.45;;
43676;SDS011;29275;48.800;18.102;2024-03-06T05:55:41;34.25;;;15.90;;
43676;SDS011;29275;48.800;18.102;2024-03-06T05:58:58;27.65;;;15.25;;
43676;SDS011;29275;48.800;18.102;2024-03-06T06:02:07;28.83;;;16.95;;
43676;SDS011;29275;48.800;18.102;2024-03-06T06:05:11;26.40;;;15.30;;
43676;SDS011;29275;48.800;18.102;2024-03-06T06:08:19;36.30;;;15.80;;
43676;SDS011;29275;48.800;18.102;2024-03-06T06:11:22;29.95;;;15.48;;
43676;SDS011;29275;48.800;18.102;2024-03-06T06:14:25;26.88;;;15.57;;
43676;SDS011;29275;48.800;18.102;2024-03-06T06:17:29;28.63;;;16.00;;
43676;SDS011;29275;48.800;18.102;2024-03-06T06:20:32;30.67;;;15.98;;
43676;SDS011;29275;48.800;18.102;2024-03-06T06:23:36;27.10;;;15.50;;
43676;SDS011;29275;48.800;18.102;2024-03-06T06:26:39;29.48;;;16.60;;
43676;SDS011;29275;48.800;18.102;2024-03-06T06:29:42;35.35;;;16.25;;
43676;SDS011;29275;48.800;18.102;2024-03-06T06:32:45;28.27;;;15.73;;
43676;SDS011;29275;48.800;18.102;2024-03-06T06:35:48;26.80;;;14.65;;
43676;SDS011;29275;48.800;18.102;2024-03-06T06:38:51;25.10;;;13.60;;
43676;SDS011;29275;48.800;18.102;2024-03-06T06:41:56;26.05;;;14.93;;
43676;SDS011;29275;48.800;18.102;2024-03-06T06:45:01;26.27;;;15.13;;
43676;SDS011;29275;48.800;18.102;2024-03-06T06:48:05;28.33;;;16.08;;
43676;SDS011;29275;48.800;18.102;2024-03-06T06:51:08;30.10;;;16.45;;
43676;SDS011;29275;48.800;18.102;2024-03-06T06:54:11;41.83;;;16.67;;
43676;SDS011;29275;48.800;18.102;2024-03-06T06:57:14;31.13;;;16.02;;
43676;SDS011;29275;48.800;18.102;2024-03-06T07:00:18;28.83;;;15.45;;
43676;SDS011;29275;48.800;18.102;2024-03-06T07:03:24;31.27;;;15.57;;
43676;SDS011;29275;48.800;18.102;2024-03-06T07:06:32;23.88;;;14.57;;
43676;SDS011;29275;48.800;18.102;2024-03-06T07:09:35;24.80;;;15.35;;
43676;SDS011;29275;48.800;18.102;2024-03-06T07:12:39;24.13;;;12.98;;
43676;SDS011;29275;48.800;18.102;2024-03-06T07:15:42;26.15;;;14.10;;
43676;SDS011;29275;48.800;18.102;2024-03-06T07:18:45;25.00;;;13.75;;
43676;SDS011;29275;48.800;18.102;2024-03-06T07:21:48;26.20;;;15.55;;
43676;SDS011;29275;48.800;18.102;2024-03-06T07:24:51;27.83;;;14.40;;
43676;SDS011;29275;48.800;18.102;2024-03-06T07:27:54;25.23;;;14.07;;
43676;SDS011;29275;48.800;18.102;2024-03-06T07:30:57;28.00;;;15.23;;
43676;SDS011;29275;48.800;18.102;2024-03-06T07:34:03;24.05;;;12.85;;
43676;SDS011;29275;48.800;18.102;2024-03-06T07:37:06;23.70;;;14.40;;
43676;SDS011;29275;48.800;18.102;2024-03-06T07:40:09;20.33;;;12.90;;
43676;SDS011;29275;48.800;18.102;2024-03-06T07:43:12;24.55;;;13.40;;
43676;SDS011;29275;48.800;18.102;2024-03-06T07:46:16;25.33;;;13.40;;
43676;SDS011;29275;48.800;18.102;2024-03-06T07:49:20;21.73;;;12.13;;
43676;SDS011;29275;48.800;18.102;2024-03-06T07:52:24;25.42;;;12.80;;
43676;SDS011;29275;48.800;18.102;2024-03-06T07:55:27;21.45;;;12.88;;
43676;SDS011;29275;48.800;18.102;2024-03-06T07:58:30;28.20;;;13.98;;
43676;SDS011;29275;48.800;18.102;2024-03-06T08:01:35;19.77;;;13.02;;
43676;SDS011;29275;48.800;18.102;2024-03-06T08:04:38;27.27;;;13.65;;
43676;SDS011;29275;48.800;18.102;2024-03-06T08:07:41;29.23;;;14.23;;
43676;SDS011;29275;48.800;18.102;2024-03-06T08:10:44;30.75;;;13.88;;
43676;SDS011;29275;48.800;18.102;2024-03-06T08:13:48;35.00;;;13.27;;
43676;SDS011;29275;48.800;18.102;2024-03-06T08:16:51;25.50;;;14.00;;
43676;SDS011;29275;48.800;18.102;2024-03-06T08:19:54;20.55;;;13.30;;
43676;SDS011;29275;48.800;18.102;2024-03-06T08:22:57;38.17;;;12.65;;
43676;SDS011;29275;48.800;18.102;2024-03-06T08:26:01;24.65;;;13.18;;
43676;SDS011;29275;48.800;18.102;2024-03-06T08:29:04;26.13;;;13.00;;
43676;SDS011;29275;48.800;18.102;2024-03-06T08:32:09;22.88;;;13.20;;
43676;SDS011;29275;48.800;18.102;2024-03-06T08:35:13;33.22;;;14.63;;
43676;SDS011;29275;48.800;18.102;2024-03-06T08:38:22;23.40;;;14.15;;
43676;SDS011;29275;48.800;18.102;2024-03-06T08:41:26;32.40;;;12.90;;
43676;SDS011;29275;48.800;18.102;2024-03-06T08:44:29;22.70;;;14.23;;
43676;SDS011;29275;48.800;18.102;2024-03-06T08:47:32;27.23;;;14.80;;
43676;SDS011;29275;48.800;18.102;2024-03-06T08:50:35;33.58;;;17.45;;
43676;SDS011;29275;48.800;18.102;2024-03-06T08:53:40;29.27;;;15.25;;
43676;SDS011;29275;48.800;18.102;2024-03-06T08:56:43;27.65;;;14.98;;
43676;SDS011;29275;48.800;18.102;2024-03-06T08:59:47;28.67;;;14.25;;
43676;SDS011;29275;48.800;18.102;2024-03-06T09:02:52;24.15;;;15.38;;
43676;SDS011;29275;48.800;18.102;2024-03-06T09:05:56;25.42;;;14.48;;
43676;SDS011;29275;48.800;18.102;2024-03-06T09:08:59;23.65;;;13.32;;
43676;SDS011;29275;48.800;18.102;2024-03-06T09:12:02;21.02;;;12.93;;
43676;SDS011;29275;48.800;18.102;2024-03-06T09:15:09;42.17;;;13.40;;
43676;SDS011;29275;48.800;18.102;2024-03-06T09:18:14;22.85;;;13.50;;
43676;SDS011;29275;48.800;18.102;2024-03-06T09:21:19;26.05;;;13.32;;
43676;SDS011;29275;48.800;18.102;2024-03-06T09:24:22;30.13;;;13.90;;
43676;SDS011;29275;48.800;18.102;2024-03-06T09:27:26;33.78;;;13.68;;
43676;SDS011;29275;48.800;18.102;2024-03-06T09:30:29;24.27;;;13.30;;
43676;SDS011;29275;48.800;18.102;2024-03-06T09:33:33;21.42;;;12.75;;
43676;SDS011;29275;48.800;18.102;2024-03-06T09:36:36;21.88;;;13.40;;
43676;SDS011;29275;48.800;18.102;2024-03-06T09:39:39;22.90;;;12.80;;
43676;SDS011;29275;48.800;18.102;2024-03-06T09:42:43;25.38;;;14.23;;
43676;SDS011;29275;48.800;18.102;2024-03-06T09:45:47;28.92;;;12.82;;
43676;SDS011;29275;48.800;18.102;2024-03-06T09:48:54;23.40;;;12.02;;
43676;SDS011;29275;48.800;18.102;2024-03-06T09:51:57;29.63;;;13.85;;
43676;SDS011;29275;48.800;18.102;2024-03-06T09:55:01;34.03;;;12.45;;
43676;SDS011;29275;48.800;18.102;2024-03-06T09:58:07;20.80;;;11.93;;
43676;SDS011;29275;48.800;18.102;2024-03-06T10:01:11;25.15;;;12.88;;
43676;SDS011;29275;48.800;18.102;2024-03-06T10:04:22;19.00;;;11.75;;
43676;SDS011;29275;48.800;18.102;2024-03-06T10:07:30;24.23;;;12.35;;
43676;SDS011;29275;48.800;18.102;2024-03-06T10:10:32;24.20;;;13.98;;
43676;SDS011;29275;48.800;18.102;2024-03-06T10:13:36;18.85;;;12.35;;
43676;SDS011;29275;48.800;18.102;2024-03-06T10:16:58;19.45;;;12.52;;
43676;SDS011;29275;48.800;18.102;2024-03-06T10:20:05;24.65;;;13.10;;
43676;SDS011;29275;48.800;18.102;2024-03-06T10:23:22;23.15;;;12.82;;
43676;SDS011;29275;48.800;18.102;2024-03-06T10:26:26;30.90;;;14.35;;
43676;SDS011;29275;48.800;18.102;2024-03-06T10:32:37;17.52;;;11.82;;
43676;SDS011;29275;48.800;18.102;2024-03-06T10:35:46;23.42;;;11.77;;
43676;SDS011;29275;48.800;18.102;2024-03-06T10:38:51;17.13;;;10.80;;
43676;SDS011;29275;48.800;18.102;2024-03-06T10:41:56;19.60;;;11.25;;
43676;SDS011;29275;48.800;18.102;2024-03-06T10:45:00;20.73;;;10.65;;
43676;SDS011;29275;48.800;18.102;2024-03-06T10:48:04;17.45;;;11.27;;
43676;SDS011;29275;48.800;18.102;2024-03-06T10:51:07;23.73;;;9.90;;
43676;SDS011;29275;48.800;18.102;2024-03-06T10:54:14;14.57;;;9.15;;
43676;SDS011;29275;48.800;18.102;2024-03-06T10:57:27;23.75;;;9.38;;
43676;SDS011;29275;48.800;18.102;2024-03-06T11:00:32;17.52;;;8.18;;
43676;SDS011;29275;48.800;18.102;2024-03-06T11:03:40;17.38;;;9.38;;
43676;SDS011;29275;48.800;18.102;2024-03-06T11:06:52;16.80;;;8.93;;
43676;SDS011;29275;48.800;18.102;2024-03-06T11:10:04;18.48;;;8.63;;
43676;SDS011;29275;48.800;18.102;2024-03-06T11:16:31;10.75;;;7.25;;
43676;SDS011;29275;48.800;18.102;2024-03-06T11:23:19;18.45;;;8.63;;
43676;SDS011;29275;48.800;18.102;2024-03-06T11:26:23;13.10;;;7.53;;
43676;SDS011;29275;48.800;18.102;2024-03-06T11:29:29;13.98;;;8.75;;
43676;SDS011;29275;48.800;18.102;2024-03-06T11:32:59;39.80;;;11.65;;
43676;SDS011;29275;48.800;18.102;2024-03-06T11:36:19;18.75;;;9.48;;
43676;SDS011;29275;48.800;18.102;2024-03-06T11:39:27;18.08;;;9.55;;
43676;SDS011;29275;48.800;18.102;2024-03-06T11:42:49;32.17;;;10.82;;
43676;SDS011;29275;48.800;18.102;2024-03-06T11:46:10;18.45;;;11.10;;
43676;SDS011;29275;48.800;18.102;2024-03-06T11:49:21;18.02;;;11.32;;
43676;SDS011;29275;48.800;18.102;2024-03-06T11:52:26;19.73;;;10.05;;
43676;SDS011;29275;48.800;18.102;2024-03-06T11:55:32;19.27;;;10.65;;
43676;SDS011;29275;48.800;18.102;2024-03-06T11:58:34;15.95;;;10.48;;
43676;SDS011;29275;48.800;18.102;2024-03-06T12:01:38;19.05;;;10.50;;
43676;SDS011;29275;48.800;18.102;2024-03-06T12:04:41;18.23;;;11.23;;
43676;SDS011;29275;48.800;18.102;2024-03-06T12:07:45;36.92;;;12.20;;
43676;SDS011;29275;48.800;18.102;2024-03-06T12:10:49;16.48;;;10.43;;
43676;SDS011;29275;48.800;18.102;2024-03-06T12:13:52;16.17;;;10.20;;
43676;SDS011;29275;48.800;18.102;2024-03-06T12:20:10;15.95;;;10.73;;
43676;SDS011;29275;48.800;18.102;2024-03-06T12:23:20;21.10;;;11.33;;
43676;SDS011;29275;48.800;18.102;2024-03-06T12:26:42;18.45;;;10.25;;
43676;SDS011;29275;48.800;18.102;2024-03-06T12:29:46;19.30;;;11.65;;
43676;SDS011;29275;48.800;18.102;2024-03-06T12:32:59;19.92;;;10.15;;
43676;SDS011;29275;48.800;18.102;2024-03-06T12:36:06;21.55;;;10.63;;
43676;SDS011;29275;48.800;18.102;2024-03-06T12:39:14;17.13;;;11.10;;
43676;SDS011;29275;48.800;18.102;2024-03-06T12:42:20;15.40;;;10.20;;
43676;SDS011;29275;48.800;18.102;2024-03-06T12:45:23;18.38;;;10.73;;
43676;SDS011;29275;48.800;18.102;2024-03-06T12:48:26;20.00;;;12.32;;
43676;SDS011;29275;48.800;18.102;2024-03-06T12:51:30;19.02;;;12.13;;
43676;SDS011;29275;48.800;18.102;2024-03-06T12:54:35;20.77;;;11.95;;
43676;SDS011;29275;48.800;18.102;2024-03-06T12:57:38;19.60;;;11.25;;
43676;SDS011;29275;48.800;18.102;2024-03-06T13:00:43;19.80;;;11.68;;
43676;SDS011;29275;48.800;18.102;2024-03-06T13:03:47;18.95;;;11.52;;
43676;SDS011;29275;48.800;18.102;2024-03-06T13:06:49;17.98;;;11.18;;
43676;SDS011;29275;48.800;18.102;2024-03-06T13:09:52;27.08;;;12.02;;
43676;SDS011;29275;48.800;18.102;2024-03-06T13:12:55;19.55;;;11.18;;
43676;SDS011;29275;48.800;18.102;2024-03-06T13:15:58;19.33;;;11.68;;
43676;SDS011;29275;48.800;18.102;2024-03-06T13:19:07;19.17;;;11.18;;
43676;SDS011;29275;48.800;18.102;2024-03-06T13:22:10;19.65;;;12.60;;
43676;SDS011;29275;48.800;18.102;2024-03-06T13:25:20;20.67;;;11.40;;
43676;SDS011;29275;48.800;18.102;2024-03-06T13:28:23;19.63;;;11.05;;
43676;SDS011;29275;48.800;18.102;2024-03-06T13:31:26;30.27;;;11.45;;
43676;SDS011;29275;48.800;18.102;2024-03-06T13:34:32;25.03;;;12.47;;
43676;SDS011;29275;48.800;18.102;2024-03-06T13:37:35;19.75;;;11.23;;
43676;SDS011;29275;48.800;18.102;2024-03-06T13:40:38;27.80;;;12.90;;
43676;SDS011;29275;48.800;18.102;2024-03-06T13:43:42;23.75;;;12.80;;
43676;SDS011;29275;48.800;18.102;2024-03-06T13:47:05;37.28;;;14.02;;
43676;SDS011;29275;48.800;18.102;2024-03-06T13:50:30;21.05;;;12.90;;
43676;SDS011;29275;48.800;18.102;2024-03-06T13:53:33;28.25;;;14.35;;
43676;SDS011;29275;48.800;18.102;2024-03-06T13:56:36;23.15;;;14.05;;
43676;SDS011;29275;48.800;18.102;2024-03-06T13:59:39;25.60;;;13.70;;
43676;SDS011;29275;48.800;18.102;2024-03-06T14:02:45;24.17;;;14.38;;
43676;SDS011;29275;48.800;18.102;2024-03-06T14:05:51;40.80;;;14.18;;
43676;SDS011;29275;48.800;18.102;2024-03-06T14:08:58;23.40;;;14.20;;
43676;SDS011;29275;48.800;18.102;2024-03-06T14:12:01;23.83;;;13.07;;
43676;SDS011;29275;48.800;18.102;2024-03-06T14:15:05;24.48;;;13.55;;
43676;SDS011;29275;48.800;18.102;2024-03-06T14:18:15;29.92;;;14.23;;
43676;SDS011;29275;48.800;18.102;2024-03-06T14:21:19;21.42;;;12.48;;
43676;SDS011;29275;48.800;18.102;2024-03-06T14:24:22;24.48;;;12.25;;
43676;SDS011;29275;48.800;18.102;2024-03-06T14:27:25;29.88;;;13.23;;
43676;SDS011;29275;48.800;18.102;2024-03-06T14:30:27;22.38;;;13.07;;
43676;SDS011;29275;48.800;18.102;2024-03-06T14:33:30;22.65;;;13.65;;
43676;SDS011;29275;48.800;18.102;2024-03-06T14:36:33;25.33;;;12.50;;
43676;SDS011;29275;48.800;18.102;2024-03-06T14:39:37;21.75;;;12.73;;
43676;SDS011;29275;48.800;18.102;2024-03-06T14:42:40;20.10;;;12.57;;
43676;SDS011;29275;48.800;18.102;2024-03-06T14:45:45;22.33;;;12.95;;
43676;SDS011;29275;48.800;18.102;2024-03-06T14:48:53;21.75;;;12.70;;
43676;SDS011;29275;48.800;18.102;2024-03-06T14:51:57;24.48;;;14.27;;
43676;SDS011;29275;48.800;18.102;2024-03-06T14:54:59;26.70;;;13.77;;
43676;SDS011;29275;48.800;18.102;2024-03-06T14:58:08;21.17;;;13.05;;
43676;SDS011;29275;48.800;18.102;2024-03-06T15:01:11;26.58;;;13.88;;
43676;SDS011;29275;48.800;18.102;2024-03-06T15:04:15;27.23;;;12.55;;
43676;SDS011;29275;48.800;18.102;2024-03-06T15:07:21;25.03;;;14.23;;
43676;SDS011;29275;48.800;18.102;2024-03-06T15:10:26;22.02;;;13.60;;
43676;SDS011;29275;48.800;18.102;2024-03-06T15:13:33;28.60;;;14.00;;
43676;SDS011;29275;48.800;18.102;2024-03-06T15:16:37;23.27;;;14.40;;
43676;SDS011;29275;48.800;18.102;2024-03-06T15:19:47;19.55;;;13.00;;
43676;SDS011;29275;48.800;18.102;2024-03-06T15:22:51;21.30;;;13.52;;
43676;SDS011;29275;48.800;18.102;2024-03-06T15:26:02;28.63;;;14.65;;
43676;SDS011;29275;48.800;18.102;2024-03-06T15:29:06;28.10;;;14.55;;
43676;SDS011;29275;48.800;18.102;2024-03-06T15:32:11;20.52;;;13.55;;
43676;SDS011;29275;48.800;18.102;2024-03-06T15:35:14;23.55;;;13.93;;
43676;SDS011;29275;48.800;18.102;2024-03-06T15:38:18;33.60;;;14.10;;
43676;SDS011;29275;48.800;18.102;2024-03-06T15:41:22;21.83;;;13.27;;
43676;SDS011;29275;48.800;18.102;2024-03-06T15:44:25;22.50;;;14.63;;
43676;SDS011;29275;48.800;18.102;2024-03-06T15:47:30;24.63;;;14.02;;
43676;SDS011;29275;48.800;18.102;2024-03-06T15:50:34;25.23;;;14.43;;
43676;SDS011;29275;48.800;18.102;2024-03-06T15:53:37;22.85;;;13.95;;
43676;SDS011;29275;48.800;18.102;2024-03-06T15:56:40;20.08;;;13.23;;
43676;SDS011;29275;48.800;18.102;2024-03-06T15:59:47;24.45;;;13.35;;
43676;SDS011;29275;48.800;18.102;2024-03-06T16:02:57;24.23;;;16.08;;
43676;SDS011;29275;48.800;18.102;2024-03-06T16:06:01;20.73;;;14.25;;
43676;SDS011;29275;48.800;18.102;2024-03-06T16:09:22;20.98;;;11.82;;
43676;SDS011;29275;48.800;18.102;2024-03-06T16:12:26;17.07;;;10.93;;
43676;SDS011;29275;48.800;18.102;2024-03-06T16:15:29;18.95;;;11.75;;
43676;SDS011;29275;48.800;18.102;2024-03-06T16:18:39;22.13;;;11.48;;
43676;SDS011;29275;48.800;18.102;2024-03-06T16:21:42;14.73;;;10.10;;
43676;SDS011;29275;48.800;18.102;2024-03-06T16:24:45;14.20;;;9.05;;
43676;SDS011;29275;48.800;18.102;2024-03-06T16:27:48;24.73;;;10.20;;
43676;SDS011;29275;48.800;18.102;2024-03-06T16:30:51;17.48;;;11.13;;
43676;SDS011;29275;48.800;18.102;2024-03-06T16:37:03;15.82;;;9.63;;
43676;SDS011;29275;48.800;18.102;2024-03-06T16:40:07;16.95;;;9.85;;
43676;SDS011;29275;48.800;18.102;2024-03-06T16:43:12;17.50;;;9.00;;
43676;SDS011;29275;48.800;18.102;2024-03-06T16:46:24;17.67;;;11.25;;
43676;SDS011;29275;48.800;18.102;2024-03-06T16:49:31;17.23;;;9.70;;
43676;SDS011;29275;48.800;18.102;2024-03-06T16:52:37;14.90;;;8.70;;
43676;SDS011;29275;48.800;18.102;2024-03-06T16:55:41;13.30;;;8.43;;
43676;SDS011;29275;48.800;18.102;2024-03-06T16:58:45;13.75;;;8.35;;
43676;SDS011;29275;48.800;18.102;2024-03-06T17:01:48;14.32;;;8.27;;
43676;SDS011;29275;48.800;18.102;2024-03-06T17:04:53;15.02;;;8.40;;
43676;SDS011;29275;48.800;18.102;2024-03-06T17:08:12;12.82;;;7.80;;
43676;SDS011;29275;48.800;18.102;2024-03-06T17:11:20;11.73;;;7.68;;
43676;SDS011;29275;48.800;18.102;2024-03-06T17:14:29;11.23;;;7.57;;
43676;SDS011;29275;48.800;18.102;2024-03-06T17:17:35;12.43;;;7.88;;
43676;SDS011;29275;48.800;18.102;2024-03-06T17:20:38;16.10;;;9.50;;
43676;SDS011;29275;48.800;18.102;2024-03-06T17:23:48;16.17;;;9.38;;
43676;SDS011;29275;48.800;18.102;2024-03-06T17:26:54;15.60;;;9.82;;
43676;SDS011;29275;48.800;18.102;2024-03-06T17:30:05;14.73;;;9.23;;
43676;SDS011;29275;48.800;18.102;2024-03-06T17:33:08;13.93;;;8.40;;
43676;SDS011;29275;48.800;18.102;2024-03-06T17:36:11;16.48;;;9.02;;
43676;SDS011;29275;48.800;18.102;2024-03-06T17:39:14;15.00;;;9.07;;
43676;SDS011;29275;48.800;18.102;2024-03-06T17:42:18;12.48;;;8.70;;
43676;SDS011;29275;48.800;18.102;2024-03-06T17:45:21;11.23;;;7.95;;
43676;SDS011;29275;48.800;18.102;2024-03-06T17:48:24;16.75;;;8.63;;
43676;SDS011;29275;48.800;18.102;2024-03-06T17:51:30;14.27;;;8.63;;
43676;SDS011;29275;48.800;18.102;2024-03-06T17:54:35;14.95;;;8.65;;
43676;SDS011;29275;48.800;18.102;2024-03-06T17:57:39;17.95;;;11.50;;
43676;SDS011;29275;48.800;18.102;2024-03-06T18:00:54;14.57;;;9.65;;
43676;SDS011;29275;48.800;18.102;2024-03-06T18:03:57;15.00;;;8.40;;
43676;SDS011;29275;48.800;18.102;2024-03-06T18:07:01;14.40;;;8.63;;
43676;SDS011;29275;48.800;18.102;2024-03-06T18:10:04;13.93;;;9.10;;
43676;SDS011;29275;48.800;18.102;2024-03-06T18:13:09;15.77;;;9.70;;